Time;durP1;ratioP1;P1;durP2;ratioP2;P2;SDS_P1;SDS_P2;PMS_P1;PMS_P2;Temp;Humidity;BMP_temperature;BMP_pressure;BME280_temperature;BME280_humidity;BME280_pressure;Samples;Min_cycle;Max_cycle;Signal;HPM_P1;HPM_P2
2022/06/06 00:01:09;;;;;;;3.90;3.60;;;;;;;17.48;100.00;100411.16;4968187;28;20220;-78
2022/06/06 00:03:34;;;;;;;3.90;3.60;;;;;;;17.49;100.00;100403.28;4956153;28;20581;-78
2022/06/06 00:05:59;;;;;;;4.00;3.70;;;;;;;17.49;100.00;100400.66;4968568;28;20202;-77
2022/06/06 00:08:25;;;;;;;4.20;3.90;;;;;;;17.47;100.00;100397.25;4954538;28;20698;-78
2022/06/06 00:10:55;;;;;;;4.27;3.97;;;;;;;17.49;100.00;100392.81;4965315;28;20678;-78
2022/06/06 00:13:20;;;;;;;5.10;4.70;;;;;;;17.49;100.00;100392.81;4956739;28;20227;-78
2022/06/06 00:15:47;;;;;;;5.10;4.70;;;;;;;17.50;100.00;100391.03;4950934;28;20192;-78
2022/06/06 00:18:12;;;;;;;4.47;4.17;;;;;;;17.51;100.00;100383.16;4947583;28;20185;-79
2022/06/06 00:20:37;;;;;;;5.53;5.03;;;;;;;17.52;100.00;100386.59;4946296;28;20708;-77
2022/06/06 00:23:03;;;;;;;4.97;4.63;;;;;;;17.52;100.00;100389.22;4962900;28;20185;-78
2022/06/06 00:25:29;;;;;;;4.67;4.37;;;;;;;17.52;100.00;100392.72;4970498;28;20281;-79
2022/06/06 00:27:54;;;;;;;6.30;5.33;;;;;;;17.56;100.00;100389.97;4950176;28;20193;-77
2022/06/06 00:30:20;;;;;;;6.03;5.50;;;;;;;17.52;100.00;100384.88;4943572;28;20220;-77
2022/06/06 00:35:30;;;;;;;6.27;5.73;;;;;;;17.43;100.00;100379.94;4947611;28;20213;-78
2022/06/06 00:37:56;;;;;;;5.90;5.40;;;;;;;17.43;100.00;100373.88;4945658;28;20190;-78
2022/06/06 00:40:24;;;;;;;5.73;5.23;;;;;;;17.41;100.00;100368.69;4962317;28;20686;-77
2022/06/06 00:42:49;;;;;;;6.07;5.67;;;;;;;17.41;100.00;100373.91;4965727;28;20674;-77
2022/06/06 00:45:20;;;;;;;6.37;5.87;;;;;;;17.38;100.00;100368.81;4972685;28;20193;-77
2022/06/06 00:48:22;;;;;;;6.10;5.60;;;;;;;17.32;100.00;100366.41;4950891;28;20190;-77
2022/06/06 00:50:56;;;;;;;6.27;5.80;;;;;;;17.24;100.00;100376.31;4950521;28;20725;-77
2022/06/06 00:53:29;;;;;;;7.07;6.47;;;;;;;17.17;100.00;100375.63;4951525;28;20191;-78
2022/06/06 00:56:05;;;;;;;6.33;5.83;;;;;;;17.11;100.00;100373.25;4951058;28;20559;-78
2022/06/06 00:58:31;;;;;;;7.40;6.90;;;;;;;17.10;100.00;100371.53;4963593;28;20190;-78
2022/06/06 01:00:57;;;;;;;6.40;5.90;;;;;;;17.10;100.00;100367.16;4951488;28;20195;-77
2022/06/06 01:03:25;;;;;;;6.40;5.90;;;;;;;17.10;100.00;100367.16;4963259;28;20269;-77
2022/06/06 01:05:52;;;;;;;6.63;6.13;;;;;;;17.10;100.00;100361.91;4943915;28;20207;-77
2022/06/06 01:08:20;;;;;;;6.63;6.17;;;;;;;17.06;100.00;100357.72;4950055;28;20186;-77
2022/06/06 01:10:46;;;;;;;6.70;6.20;;;;;;;17.01;100.00;100351.78;4965569;28;20318;-77
2022/06/06 01:13:14;;;;;;;6.83;6.30;;;;;;;16.95;100.00;100337.19;4951730;28;20651;-77
2022/06/06 01:16:00;;;;;;;7.00;6.50;;;;;;;16.90;100.00;100346.91;4972565;28;20195;-77
2022/06/06 01:18:52;;;;;;;6.83;6.23;;;;;;;16.83;100.00;100340.19;4948512;28;20192;-77
2022/06/06 01:21:42;;;;;;;6.80;6.20;;;;;;;16.79;100.00;100338.59;4948828;28;20224;-77
2022/06/06 01:24:56;;;;;;;7.00;6.50;;;;;;;16.70;100.00;100335.38;4949378;28;20293;-77
2022/06/06 01:27:51;;;;;;;7.27;6.67;;;;;;;16.63;100.00;100331.25;4936972;28;20197;-78
2022/06/06 01:30:25;;;;;;;6.97;6.47;;;;;;;16.56;100.00;100346.28;4966678;28;20268;-77
2022/06/06 01:32:55;;;;;;;7.27;6.67;;;;;;;16.49;100.00;100336.09;4973257;28;20230;-77
2022/06/06 01:35:33;;;;;;;7.40;6.83;;;;;;;16.43;100.00;100335.38;4949236;28;20535;-77
2022/06/06 01:37:59;;;;;;;6.93;6.43;;;;;;;16.38;100.00;100345.13;4945979;28;20182;-77
2022/06/06 01:40:44;;;;;;;6.90;6.40;;;;;;;16.33;100.00;100339.19;4949692;28;20226;-77
2022/06/06 01:43:15;;;;;;;7.40;6.83;;;;;;;16.29;100.00;100337.56;4947717;28;20583;-78
2022/06/06 01:46:03;;;;;;;6.77;6.27;;;;;;;16.24;100.00;100334.28;4946587;28;20655;-77
2022/06/06 01:48:34;;;;;;;7.67;7.00;;;;;;;16.22;100.00;100343.91;4942442;28;20751;-79
2022/06/06 01:51:08;;;;;;;7.47;6.97;;;;;;;16.22;100.00;100334.31;4961036;28;20718;-77
2022/06/06 01:53:36;;;;;;;7.33;6.63;;;;;;;16.21;100.00;100334.38;4952071;28;20183;-78
2022/06/06 01:56:03;;;;;;;6.47;5.97;;;;;;;16.18;100.00;100330.09;4947130;28;20273;-78
2022/06/06 01:58:31;;;;;;;6.67;6.17;;;;;;;16.17;100.00;100335.38;4952831;28;20294;-77
2022/06/06 02:00:56;;;;;;;6.73;6.23;;;;;;;16.13;100.00;100332.00;4963995;28;20206;-77
2022/06/06 02:03:22;;;;;;;6.33;5.83;;;;;;;16.11;100.00;100326.81;4949611;28;20245;-77
2022/06/06 02:05:48;;;;;;;6.30;5.80;;;;;;;16.07;100.00;100321.75;4948260;28;20279;-77
2022/06/06 02:08:14;;;;;;;6.20;5.70;;;;;;;16.04;100.00;100335.75;4949037;28;20194;-78
2022/06/06 02:10:40;;;;;;;6.53;5.93;;;;;;;16.02;100.00;100327.09;4953689;28;20613;-78
2022/06/06 02:13:06;;;;;;;6.50;6.00;;;;;;;15.99;100.00;100322.84;4949809;28;20225;-77
2022/06/06 02:15:32;;;;;;;6.20;5.70;;;;;;;15.97;100.00;100322.03;4965911;28;20659;-77
2022/06/06 02:17:58;;;;;;;6.47;5.97;;;;;;;15.98;100.00;100325.50;4980483;28;20184;-78
2022/06/06 02:20:29;;;;;;;6.77;6.27;;;;;;;15.94;100.00;100319.50;4958541;28;20252;-77
2022/06/06 02:22:55;;;;;;;5.90;5.47;;;;;;;15.92;100.00;100317.88;4949911;28;20190;-79
2022/06/06 02:25:21;;;;;;;6.13;5.73;;;;;;;15.92;100.00;100310.03;4954506;28;20640;-78
2022/06/06 02:27:46;;;;;;;6.47;5.63;;;;;;;15.92;100.00;100321.31;4955577;28;20202;-77
2022/06/06 02:30:16;;;;;;;5.70;5.23;;;;;;;15.91;100.00;100324.81;4955846;28;20367;-78
2022/06/06 02:32:42;;;;;;;7.10;6.40;;;;;;;15.93;100.00;100320.41;4949224;28;20900;-78
2022/06/06 02:35:09;;;;;;;6.57;6.03;;;;;;;15.92;100.00;100316.09;4951151;28;20191;-77
2022/06/06 02:37:36;;;;;;;6.80;6.23;;;;;;;15.91;100.00;100322.22;4972514;28;20189;-77
2022/06/06 02:40:02;;;;;;;6.70;6.20;;;;;;;15.92;100.00;100318.69;4952719;28;20292;-77
2022/06/06 02:42:27;;;;;;;6.43;5.83;;;;;;;15.92;100.00;100318.69;4950086;28;20212;-77
2022/06/06 02:44:52;;;;;;;6.80;6.10;;;;;;;15.93;100.00;100324.78;4969507;28;20191;-78
2022/06/06 02:47:18;;;;;;;6.20;5.70;;;;;;;15.95;100.00;100317.78;4951670;28;20228;-77
2022/06/06 02:49:43;;;;;;;6.67;6.07;;;;;;;15.98;100.00;100320.25;4968288;28;20662;-78
2022/06/06 02:52:09;;;;;;;6.27;5.70;;;;;;;16.01;100.00;100325.41;4960014;28;20228;-77
2022/06/06 02:54:34;;;;;;;6.40;5.80;;;;;;;16.05;100.00;100323.53;4948220;28;20187;-78
2022/06/06 02:57:03;;;;;;;6.17;5.67;;;;;;;16.12;100.00;100322.47;4955621;28;20225;-75
2022/06/06 02:59:30;;;;;;;6.27;5.87;;;;;;;16.18;100.00;100321.41;4954252;28;20273;-78
2022/06/06 03:01:55;;;;;;;6.90;6.40;;;;;;;16.22;100.00;100329.09;4963803;28;20233;-78
2022/06/06 03:04:21;;;;;;;6.37;5.87;;;;;;;16.22;100.00;100329.09;4953395;28;20198;-76
2022/06/06 03:07:17;;;;;;;6.57;5.97;;;;;;;16.22;100.00;100320.41;4959665;28;20530;-77
2022/06/06 03:10:00;;;;;;;6.47;5.87;;;;;;;16.21;100.00;100326.53;4954478;28;20657;-77
2022/06/06 03:12:32;;;;;;;6.77;6.27;;;;;;;16.20;100.00;100323.06;4949840;28;20211;-77
2022/06/06 03:15:17;;;;;;;7.70;6.87;;;;;;;16.22;100.00;100325.63;4947281;28;20198;-76
2022/06/06 03:20:58;;;;;;;6.40;5.90;;;;;;;16.20;100.00;100322.22;4954739;28;20257;-76
2022/06/06 03:23:51;;;;;;;7.07;6.37;;;;;;;16.20;100.00;100319.59;4983049;23;20233;-93
2022/06/06 03:26:52;;;;;;;6.87;6.37;;;;;;;16.18;100.00;100317.06;4973725;28;20196;-91
2022/06/06 03:29:52;;;;;;;6.93;6.33;;;;;;;16.23;100.00;100320.34;4938325;28;20198;-93
2022/06/06 03:32:23;;;;;;;6.77;6.27;;;;;;;16.27;100.00;100314.13;4957038;28;20196;-93
2022/06/06 03:35:23;;;;;;;6.77;6.20;;;;;;;16.33;100.00;100328.75;4959032;28;20207;-93
2022/06/06 03:37:53;;;;;;;6.70;6.10;;;;;;;16.37;100.00;100332.09;4956930;28;20175;-92
2022/06/06 03:40:34;;;;;;;7.23;6.63;;;;;;;16.42;100.00;100328.44;4970017;28;20215;-91
2022/06/06 03:43:17;;;;;;;6.87;6.37;;;;;;;16.49;100.00;100338.69;4953552;28;20218;-93
2022/06/06 03:46:17;;;;;;;6.70;6.20;;;;;;;16.56;100.00;100333.22;4966551;28;20175;-93
2022/06/06 03:49:01;;;;;;;6.00;5.60;;;;;;;16.63;100.00;100338.25;4949983;28;20191;-92
2022/06/06 03:51:37;;;;;;;6.40;5.80;;;;;;;16.70;100.00;100340.63;4955754;28;20187;-93
2022/06/06 03:54:08;;;;;;;5.97;5.47;;;;;;;16.78;100.00;100337.75;4968715;28;20272;-90
2022/06/06 03:56:58;;;;;;;5.33;5.00;;;;;;;16.96;100.00;100333.66;4972128;28;20267;-92
2022/06/06 03:59:26;;;;;;;6.23;5.60;;;;;;;17.08;100.00;100344.59;4958298;28;20212;-92
2022/06/06 04:01:58;;;;;;;7.57;5.57;;;;;;;17.15;100.00;100340.88;4961985;28;20176;-91
2022/06/06 04:04:25;;;;;;;5.93;5.53;;;;;;;17.22;100.00;100339.72;4957766;28;20167;-91
2022/06/06 04:06:55;;;;;;;5.47;5.07;;;;;;;17.28;100.00;100341.25;4968321;28;20185;-93
2022/06/06 04:09:21;;;;;;;5.70;5.30;;;;;;;17.31;100.00;100341.16;4951663;28;20283;-92
2022/06/06 04:12:17;;;;;;;5.67;5.20;;;;;;;17.35;100.00;100337.53;4953127;28;20635;-91
2022/06/06 04:15:00;;;;;;;5.73;5.23;;;;;;;17.37;100.00;100343.56;4955281;28;20195;-94
2022/06/06 04:17:56;;;;;;;5.63;5.17;;;;;;;17.43;100.00;100338.09;4955355;28;20176;-93
2022/06/06 04:20:31;;;;;;;5.87;5.47;;;;;;;17.51;100.00;100335.19;4969229;28;20227;-91
2022/06/06 04:23:09;;;;;;;6.43;5.33;;;;;;;17.56;100.00;100337.63;4972771;28;20252;-94
2022/06/06 04:25:55;;;;;;;5.40;5.00;;;;;;;17.65;100.00;100340.75;4973908;28;20183;-92
2022/06/06 04:28:41;;;;;;;5.83;5.37;;;;;;;17.74;100.00;100338.72;4960770;28;20174;-93
2022/06/06 04:31:15;;;;;;;6.27;5.67;;;;;;;17.80;100.00;100335.84;4976704;28;20207;-94
2022/06/06 04:33:50;;;;;;;6.17;5.67;;;;;;;17.84;100.00;100340.06;4959805;28;20191;-93
2022/06/06 04:36:42;;;;;;;6.10;5.50;;;;;;;17.91;100.00;100340.69;4975893;28;20180;-92
2022/06/06 04:39:18;;;;;;;6.10;5.50;;;;;;;18.02;100.00;100340.31;4958794;28;20200;-95
2022/06/06 04:41:55;;;;;;;6.03;5.53;;;;;;;18.14;100.00;100339.81;4974492;28;20177;-93
2022/06/06 04:44:39;;;;;;;6.00;5.07;;;;;;;18.30;100.00;100341.81;4971477;28;20238;-92
2022/06/06 04:47:15;;;;;;;5.97;5.40;;;;;;;18.51;100.00;100343.56;4958574;28;20184;-93
2022/06/06 04:49:41;;;;;;;4.90;4.40;;;;;;;18.79;100.00;100344.16;4974959;28;20275;-91
2022/06/06 04:52:09;;;;;;;5.00;4.60;;;;;;;19.21;100.00;100339.78;4956499;28;20203;-90
2022/06/06 04:54:38;;;;;;;5.20;4.87;;;;;;;19.98;100.00;100346.81;4971098;28;20181;-92
2022/06/06 04:57:06;;;;;;;4.63;4.33;;;;;;;20.50;100.00;100345.19;4956794;28;20183;-91
2022/06/06 04:59:35;;;;;;;4.70;4.30;;;;;;;20.83;100.00;100347.09;4970691;28;20194;-92
2022/06/06 05:02:02;;;;;;;4.40;4.10;;;;;;;21.09;100.00;100347.56;4977173;28;20177;-93
2022/06/06 05:04:29;;;;;;;4.40;3.70;;;;;;;21.28;100.00;100353.53;4970029;28;20191;-92
2022/06/06 05:07:23;;;;;;;4.67;4.27;;;;;;;21.53;100.00;100344.34;4959872;28;20209;-92
2022/06/06 05:10:07;;;;;;;4.80;4.40;;;;;;;21.71;100.00;100342.50;4956747;28;20286;-93
2022/06/06 05:13:01;;;;;;;4.27;3.97;;;;;;;21.59;100.00;100333.44;4973582;28;20207;-91
2022/06/06 05:15:51;;;;;;;4.40;4.07;;;;;;;21.34;100.00;100333.91;4955413;28;20203;-92
2022/06/06 05:18:32;;;;;;;4.80;4.40;;;;;;;21.16;100.00;100341.03;4972622;28;20199;-92
2022/06/06 05:20:57;;;;;;;4.87;4.53;;;;;;;20.97;100.00;100339.34;4956515;28;20202;-91
2022/06/06 05:23:44;;;;;;;4.93;4.53;;;;;;;20.84;100.00;100333.88;4957257;29;20214;-92
2022/06/06 05:26:16;;;;;;;4.73;4.33;;;;;;;20.82;100.00;100346.25;4954817;29;20183;-92
2022/06/06 05:28:48;;;;;;;4.60;4.30;;;;;;;20.82;100.00;100355.91;4971221;28;20203;-93
2022/06/06 05:31:19;;;;;;;4.50;4.17;;;;;;;20.81;100.00;100351.56;4952777;29;20218;-92
2022/06/06 05:33:59;;;;;;;4.90;4.50;;;;;;;20.86;100.00;100354.84;4950792;29;20187;-93
2022/06/06 05:36:36;;;;;;;4.77;4.47;;;;;;;21.05;100.00;100356.53;4955177;28;20186;-93
2022/06/06 05:39:39;;;;;;;4.33;4.03;;;;;;;21.18;100.00;100357.59;4967537;28;20386;-92
2022/06/06 05:42:21;;;;;;;5.30;4.90;;;;;;;21.14;100.00;100361.28;4966708;28;20255;-93
2022/06/06 05:45:20;;;;;;;5.60;5.20;;;;;;;20.97;100.00;100365.66;4977007;28;20202;-92
2022/06/06 05:48:10;;;;;;;4.60;4.23;;;;;;;20.74;100.00;100360.69;4970235;28;20196;-92
2022/06/06 05:50:58;;;;;;;4.80;4.40;;;;;;;20.63;100.00;100362.09;4925482;29;20222;-91
2022/06/06 05:53:30;;;;;;;4.77;4.33;;;;;;;20.65;100.00;100365.47;4968243;28;20247;-91
2022/06/06 05:56:33;;;;;;;4.47;4.07;;;;;;;20.59;100.00;100373.69;4969264;28;20182;-92
2022/06/06 05:59:10;;;;;;;5.33;4.93;;;;;;;20.55;100.00;100367.72;4971185;28;20191;-92
2022/06/06 06:01:51;;;;;;;5.27;4.87;;;;;;;20.51;100.00;100383.69;4973842;28;20209;-91
2022/06/06 06:04:38;;;;;;;4.90;4.50;;;;;;;20.49;100.00;100385.59;4956878;28;20179;-91
2022/06/06 06:07:17;;;;;;;4.87;4.37;;;;;;;20.54;100.00;100386.19;4967350;28;20185;-94
2022/06/06 06:09:58;;;;;;;5.37;4.17;;;;;;;20.63;100.00;100392.78;4958268;28;20215;-93
2022/06/06 06:12:42;;;;;;;4.77;4.17;;;;;;;20.66;100.00;100400.50;4975139;28;20299;-92
2022/06/06 06:15:33;;;;;;;4.37;4.00;;;;;;;20.86;100.00;100395.16;4973492;28;20221;-91
2022/06/06 06:18:01;;;;;;;4.57;4.17;;;;;;;21.04;100.00;100400.38;4956689;28;20194;-92
2022/06/06 06:20:31;;;;;;;4.57;4.17;;;;;;;21.29;100.00;100407.03;4973979;28;20191;-92
2022/06/06 06:23:06;;;;;;;5.17;4.77;;;;;;;21.77;100.00;100413.31;4972642;28;20266;-92
2022/06/06 06:25:34;;;;;;;4.80;4.30;;;;;;;22.67;100.00;100408.34;4970802;28;20179;-93
2022/06/06 06:28:06;;;;;;;4.60;4.27;;;;;;;23.48;100.00;100414.16;4956516;28;20191;-92
2022/06/06 06:30:45;;;;;;;4.37;4.03;;;;;;;24.01;99.36;100419.72;4970029;28;20222;-92
2022/06/06 06:33:22;;;;;;;4.30;3.80;;;;;;;23.99;98.67;100411.03;4956484;29;20214;-92
2022/06/06 06:35:50;;;;;;;4.10;3.80;;;;;;;24.15;98.13;100416.22;4968568;28;20230;-94
2022/06/06 06:38:41;;;;;;;4.20;3.80;;;;;;;24.54;97.07;100426.09;4969162;28;20192;-92
2022/06/06 06:41:28;;;;;;;3.77;3.47;;;;;;;25.06;93.53;100417.34;4973391;28;20187;-92
2022/06/06 06:44:09;;;;;;;3.87;3.57;;;;;;;25.72;92.77;100427.00;4970714;28;20245;-92
2022/06/06 06:46:42;;;;;;;3.30;3.10;;;;;;;26.40;91.19;100423.97;4970808;28;20194;-91
2022/06/06 06:49:22;;;;;;;3.37;3.17;;;;;;;26.86;89.45;100425.88;4970965;28;20216;-92
2022/06/06 06:52:00;;;;;;;3.17;2.97;;;;;;;27.73;87.50;100426.38;4965838;28;20219;-92
2022/06/06 06:54:37;;;;;;;3.07;2.87;;;;;;;28.68;84.91;100436.44;4969087;28;20180;-92
2022/06/06 06:57:19;;;;;;;3.67;3.37;;;;;;;29.24;80.15;100430.94;4969395;28;20222;-91
2022/06/06 07:00:08;;;;;;;3.83;3.53;;;;;;;29.12;79.42;100431.00;4952866;28;20231;-92
2022/06/06 07:09:03;;;;;;;3.10;2.90;;;;;;;28.95;78.69;100427.13;4961338;28;20248;-93
2022/06/06 07:11:47;;;;;;;2.80;2.60;;;;;;;28.39;80.43;100433.50;4973541;28;20204;-92
2022/06/06 07:14:12;;;;;;;2.60;2.40;;;;;;;28.06;81.24;100432.63;4975609;28;20191;-90
2022/06/06 07:16:40;;;;;;;3.03;2.83;;;;;;;27.88;80.75;100429.59;4976496;28;20176;-93
2022/06/06 07:19:23;;;;;;;3.77;3.07;;;;;;;27.84;81.10;100423.69;4973522;28;20254;-92
2022/06/06 07:21:52;;;;;;;2.83;2.63;;;;;;;28.05;79.50;100428.28;4977734;28;20212;-93
2022/06/06 07:24:20;;;;;;;3.00;2.80;;;;;;;27.82;80.49;100423.84;4956758;28;20190;-93
2022/06/06 07:26:47;;;;;;;3.90;2.70;;;;;;;27.54;81.42;100427.81;4975562;28;20211;-91
2022/06/06 07:29:15;;;;;;;3.10;2.80;;;;;;;27.31;81.50;100425.09;4954121;28;20222;-93
2022/06/06 07:32:05;;;;;;;3.13;2.83;;;;;;;27.34;80.91;100430.19;4958350;28;20276;-93
2022/06/06 07:35:08;;;;;;;3.27;3.03;;;;;;;27.03;81.01;100435.19;4950319;28;20188;-92
2022/06/06 07:37:56;;;;;;;3.10;2.90;;;;;;;26.99;81.18;100427.59;4953976;28;20235;-91
2022/06/06 07:40:48;;;;;;;3.10;2.80;;;;;;;27.33;80.38;100422.34;4969192;28;20227;-92
2022/06/06 07:43:38;;;;;;;3.10;2.80;;;;;;;27.74;78.03;100428.91;4954436;29;20182;-91
2022/06/06 07:46:38;;;;;;;3.17;2.90;;;;;;;27.97;78.46;100424.41;4971220;28;20179;-92
2022/06/06 07:49:35;;;;;;;2.70;2.50;;;;;;;27.95;78.76;100423.69;4968532;28;20231;-92
2022/06/06 07:52:43;;;;;;;3.70;2.80;;;;;;;27.80;79.04;100424.91;4948492;28;20222;-93
2022/06/06 07:55:26;;;;;;;2.43;2.27;;;;;;;27.83;78.78;100422.00;4954397;28;20175;-93
2022/06/06 07:57:57;;;;;;;2.50;2.30;;;;;;;27.72;78.13;100417.53;4957181;28;20175;-91
2022/06/06 08:00:28;;;;;;;2.80;2.60;;;;;;;28.13;78.04;100413.38;4967462;28;20191;-92
2022/06/06 08:03:15;;;;;;;2.53;2.33;;;;;;;28.37;76.25;100409.69;4959566;28;20176;-93
2022/06/06 08:06:03;;;;;;;2.80;2.60;;;;;;;28.20;75.94;100402.25;4972142;28;20183;-91
2022/06/06 08:08:50;;;;;;;2.47;2.30;;;;;;;27.74;76.29;100404.97;4978454;28;20411;-90
2022/06/06 08:11:43;;;;;;;2.97;2.60;;;;;;;27.49;77.09;100408.72;4969203;28;20195;-92
2022/06/06 08:14:21;;;;;;;3.17;2.80;;;;;;;27.40;77.64;100391.66;4956028;29;20184;-92
2022/06/06 08:17:17;;;;;;;2.10;2.00;;;;;;;27.43;77.42;100394.06;4971576;28;20254;-92
2022/06/06 08:20:05;;;;;;;2.80;2.50;;;;;;;27.63;77.21;100394.34;4964842;28;20240;-93
2022/06/06 08:22:32;;;;;;;3.30;2.70;;;;;;;27.84;77.29;100391.78;4954270;28;20224;-92
2022/06/06 08:25:02;;;;;;;3.10;2.80;;;;;;;27.95;76.45;100393.59;4953328;29;20197;-92
2022/06/06 08:27:28;;;;;;;2.70;2.50;;;;;;;27.91;76.43;100395.63;4954177;29;20175;-90
2022/06/06 08:29:57;;;;;;;2.73;2.50;;;;;;;27.74;75.69;100386.34;4969528;28;20215;-93
2022/06/06 08:32:29;;;;;;;4.60;2.67;;;;;;;27.66;76.84;100388.78;4957217;28;20191;-92
2022/06/06 08:34:55;;;;;;;2.47;2.20;;;;;;;27.51;76.39;100385.53;4950645;28;20184;-91
2022/06/06 08:40:30;;;;;;;3.27;2.30;;;;;;;27.58;76.16;100381.44;4941184;28;20234;-77
2022/06/06 08:42:59;;;;;;;2.47;2.27;;;;;;;27.50;74.83;100382.03;4940411;29;20326;-78
2022/06/06 08:46:03;;;;;;;4.23;2.33;;;;;;;27.37;75.22;100378.63;4922371;29;20601;-77
2022/06/06 08:48:47;;;;;;;4.77;2.53;;;;;;;27.32;73.44;100371.00;4934530;29;20282;-77
2022/06/06 08:51:22;;;;;;;2.60;2.40;;;;;;;27.16;75.67;100375.81;4916030;29;20257;-78
2022/06/06 08:54:09;;;;;;;2.60;2.33;;;;;;;26.86;76.50;100364.81;4936572;29;20199;-77
2022/06/06 08:57:05;;;;;;;2.80;2.17;;;;;;;26.59;76.86;100371.22;4913952;29;20183;-78
2022/06/06 09:00:08;;;;;;;2.50;2.30;;;;;;;26.39;76.80;100367.41;4925301;29;20284;-77
2022/06/06 09:02:43;;;;;;;2.70;2.43;;;;;;;26.27;78.06;100363.00;4913212;29;20886;-76
2022/06/06 09:05:52;;;;;;;2.83;2.40;;;;;;;26.20;78.16;100361.78;4931968;29;20266;-76
2022/06/06 09:08:55;;;;;;;2.93;2.30;;;;;;;26.38;77.93;100359.56;4855275;29;20241;-77
2022/06/06 09:11:35;;;;;;;2.50;2.30;;;;;;;26.47;76.93;100350.94;4864372;29;20671;-76
2022/06/06 09:14:26;;;;;;;4.93;2.50;;;;;;;26.30;77.25;100352.16;4929105;29;20199;-77
2022/06/06 09:17:19;;;;;;;4.13;2.57;;;;;;;26.26;77.55;100358.66;4929467;29;20606;-76
2022/06/06 09:20:07;;;;;;;2.63;2.43;;;;;;;26.23;78.47;100364.22;4918270;29;20210;-77
2022/06/06 09:22:39;;;;;;;2.50;2.30;;;;;;;26.29;78.88;100356.63;4924437;29;20274;-76
2022/06/06 09:25:48;;;;;;;3.77;2.80;;;;;;;26.38;78.72;100357.75;4908803;29;20230;-76
2022/06/06 09:28:48;;;;;;;2.97;2.50;;;;;;;26.55;78.03;100351.19;4911375;29;20202;-77
2022/06/06 09:31:39;;;;;;;3.20;2.53;;;;;;;26.72;75.34;100343.75;4921780;29;20288;-76
2022/06/06 09:34:23;;;;;;;2.10;2.00;;;;;;;26.84;75.33;100342.84;4912826;29;20198;-76
2022/06/06 09:37:15;;;;;;;2.30;2.10;;;;;;;27.21;73.99;100344.44;4927006;29;20529;-77
2022/06/06 09:40:03;;;;;;;3.43;2.43;;;;;;;27.52;72.80;100331.41;4929215;29;20199;-76
2022/06/06 09:42:48;;;;;;;2.20;2.00;;;;;;;27.68;73.28;100345.16;4910767;29;20656;-76
2022/06/06 09:45:17;;;;;;;2.47;1.80;;;;;;;27.67;72.54;100338.16;4914337;29;20238;-76
2022/06/06 09:48:26;;;;;;;1.90;1.80;;;;;;;27.61;72.68;100333.31;4939564;29;20218;-76
2022/06/06 09:51:11;;;;;;;2.00;1.80;;;;;;;27.80;71.27;100334.50;4929147;29;20301;-76
2022/06/06 10:00:04;;;;;;;2.40;2.20;;;;;;;28.16;71.05;100323.66;4927337;29;20202;-76
2022/06/06 10:03:00;;;;;;;2.53;2.00;;;;;;;27.89;70.89;100336.44;4929011;29;20222;-76
2022/06/06 10:05:37;;;;;;;2.70;2.20;;;;;;;27.51;72.01;100324.41;4911395;29;20198;-77
2022/06/06 10:08:09;;;;;;;2.13;1.83;;;;;;;27.07;71.69;100335.75;4929068;29;20198;-76
2022/06/06 10:11:11;;;;;;;2.87;1.90;;;;;;;26.51;71.32;100331.13;4927942;28;20211;-76
2022/06/06 10:13:46;;;;;;;2.13;2.00;;;;;;;25.80;73.39;100336.34;4911942;29;20195;-78
2022/06/06 10:16:26;;;;;;;2.73;1.93;;;;;;;25.32;75.38;100337.06;4912760;29;20225;-76
2022/06/06 10:19:21;;;;;;;3.00;1.97;;;;;;;24.94;75.94;100334.31;4928836;29;20202;-77
2022/06/06 10:21:55;;;;;;;2.37;2.17;;;;;;;24.79;77.74;100330.06;4926386;29;20214;-76
2022/06/06 10:24:39;;;;;;;3.40;2.10;;;;;;;24.89;78.68;100327.66;4929946;29;20226;-77
2022/06/06 10:27:11;;;;;;;2.43;2.23;;;;;;;25.22;78.56;100329.75;4928206;29;20206;-76
2022/06/06 10:32:24;;;;;;;2.20;2.00;;;;;;;25.35;77.59;100323.56;4927740;29;20235;-76
2022/06/06 10:35:19;;;;;;;2.27;2.07;;;;;;;25.19;77.86;100329.94;4926380;29;20207;-76
2022/06/06 10:37:51;;;;;;;2.63;2.17;;;;;;;25.09;77.81;100329.78;4929922;29;20282;-76
2022/06/06 10:40:32;;;;;;;1.93;1.83;;;;;;;25.10;77.76;100325.31;4912907;29;20310;-75
2022/06/06 10:43:09;;;;;;;2.00;1.90;;;;;;;25.11;77.97;100317.25;4930418;29;20651;-75
2022/06/06 10:45:46;;;;;;;2.47;2.10;;;;;;;25.18;77.79;100317.69;4930616;29;20285;-76
2022/06/06 10:48:33;;;;;;;2.73;2.27;;;;;;;25.34;77.41;100306.84;4932292;29;20187;-76
2022/06/06 10:51:40;;;;;;;2.07;1.97;;;;;;;25.70;76.16;100305.22;4929970;29;20219;-76
2022/06/06 10:54:41;;;;;;;2.87;2.10;;;;;;;26.14;76.12;100305.56;4931923;29;21189;-76
2022/06/06 10:57:06;;;;;;;1.90;1.80;;;;;;;26.59;76.22;100299.56;4930889;29;20200;-76
2022/06/06 10:59:51;;;;;;;2.20;1.93;;;;;;;27.04;74.98;100304.09;4913600;29;20203;-77
2022/06/06 11:02:26;;;;;;;2.10;1.97;;;;;;;27.35;74.29;100300.84;4931288;29;20234;-76
2022/06/06 11:05:04;;;;;;;2.07;1.93;;;;;;;27.62;73.83;100302.28;4931033;29;20191;-76
2022/06/06 11:07:58;;;;;;;2.20;2.00;;;;;;;27.77;73.50;100293.06;4913605;29;20758;-76
2022/06/06 11:10:45;;;;;;;2.37;2.17;;;;;;;27.90;72.26;100289.38;4930723;29;20219;-76
2022/06/06 11:13:11;;;;;;;2.03;1.83;;;;;;;28.09;72.08;100280.72;4929663;29;20215;-76
2022/06/06 11:16:11;;;;;;;2.77;2.00;;;;;;;28.38;71.13;100277.47;4912402;29;20210;-76
2022/06/06 11:19:14;;;;;;;3.07;2.00;;;;;;;28.31;70.67;100269.16;4928699;29;20639;-77
2022/06/06 11:22:03;;;;;;;2.10;1.90;;;;;;;28.49;70.52;100264.09;4927415;29;20219;-79
2022/06/06 11:24:35;;;;;;;2.07;1.87;;;;;;;28.51;70.95;100275.44;4928569;29;20205;-77
2022/06/06 11:27:19;;;;;;;2.57;2.10;;;;;;;28.37;71.57;100273.09;4928900;29;20543;-76
2022/06/06 11:30:16;;;;;;;2.07;1.80;;;;;;;28.16;71.88;100273.09;4928444;29;20195;-77
2022/06/06 11:32:44;;;;;;;2.07;1.73;;;;;;;27.97;72.49;100270.13;4929471;29;20214;-77
2022/06/06 11:35:12;;;;;;;2.23;1.80;;;;;;;27.84;72.59;100269.47;4912051;29;20675;-78
2022/06/06 11:37:44;;;;;;;2.00;1.90;;;;;;;27.68;72.71;100275.22;4912277;29;20214;-77
2022/06/06 11:40:45;;;;;;;2.30;2.10;;;;;;;27.62;72.73;100275.69;4910661;29;20709;-77
2022/06/06 11:43:35;;;;;;;2.20;1.93;;;;;;;27.62;71.21;100257.91;4930518;29;20225;-78
2022/06/06 11:46:28;;;;;;;2.83;1.93;;;;;;;27.85;70.32;100263.19;4929842;29;20283;-78
2022/06/06 11:49:30;;;;;;;2.23;1.80;;;;;;;28.13;70.17;100261.75;4929005;29;20191;-77
2022/06/06 11:52:17;;;;;;;2.03;1.90;;;;;;;28.44;67.61;100256.50;4929262;29;20211;-77
2022/06/06 11:55:24;;;;;;;1.90;1.80;;;;;;;28.68;67.11;100250.03;4911689;29;20192;-77
2022/06/06 11:58:28;;;;;;;2.30;2.10;;;;;;;28.88;66.47;100261.66;4911412;29;20291;-78
2022/06/06 12:01:12;;;;;;;2.23;1.90;;;;;;;28.97;65.92;100251.16;4910856;29;20900;-76
2022/06/06 12:03:58;;;;;;;1.63;1.53;;;;;;;29.00;65.86;100245.56;4929049;29;20199;-77
2022/06/06 12:06:52;;;;;;;3.47;2.00;;;;;;;29.05;64.93;100241.53;4913223;29;20299;-77
2022/06/06 12:09:24;;;;;;;2.07;1.80;;;;;;;28.95;65.73;100250.47;4929972;29;20671;-78
2022/06/06 12:12:11;;;;;;;1.97;1.87;;;;;;;28.94;64.96;100246.13;4912087;29;20227;-76
2022/06/06 12:14:58;;;;;;;2.87;2.10;;;;;;;28.95;63.81;100245.16;4929074;29;20282;-77
2022/06/06 12:17:44;;;;;;;2.43;1.83;;;;;;;28.83;64.37;100249.72;4927282;29;20205;-78
2022/06/06 12:20:28;;;;;;;2.17;1.97;;;;;;;28.73;65.18;100245.22;4928740;29;20725;-79
2022/06/06 12:23:44;;;;;;;1.93;1.70;;;;;;;28.57;65.71;100250.13;4929855;29;20230;-77
2022/06/06 12:26:21;;;;;;;2.00;1.57;;;;;;;28.42;66.96;100246.97;4870343;29;20202;-77
2022/06/06 12:29:11;;;;;;;2.17;1.70;;;;;;;28.07;68.55;100254.25;4910538;29;20322;-77
2022/06/06 12:32:04;;;;;;;2.03;1.70;;;;;;;27.71;69.68;100247.53;4912913;29;20584;-76
2022/06/06 12:34:40;;;;;;;1.83;1.73;;;;;;;27.20;70.68;100250.63;4910968;29;20713;-79
2022/06/06 12:37:22;;;;;;;1.73;1.63;;;;;;;26.76;72.14;100239.03;4910937;29;20238;-80
2022/06/06 12:40:13;;;;;;;1.90;1.80;;;;;;;26.43;73.05;100246.81;4928615;29;20362;-76
2022/06/06 12:43:05;;;;;;;1.80;1.70;;;;;;;26.16;73.79;100241.81;4929179;29;20284;-76